Time;durP1;ratioP1;P1;durP2;ratioP2;P2;SDS_P1;SDS_P2;PMS_P1;PMS_P2;Temp;Humidity;BMP_temperature;BMP_pressure;BME280_temperature;BME280_humidity;BME280_pressure;Samples;Min_cycle;Max_cycle;Signal;HPM_P1;HPM_P2
2021/04/07 00:01:29;;;;;;;4.70;3.15;;;7.90;52.10;;;;;;10184593;28;20078;-77
2021/04/07 00:06:22;;;;;;;5.28;2.92;;;5.70;51.30;;;;;;10182716;28;20055;-78
2021/04/07 00:11:16;;;;;;;5.07;2.83;;;;;;;;;;10184727;28;20479;-79
2021/04/07 00:16:09;;;;;;;7.35;3.20;;;4.70;51.80;;;;;;10183236;28;20102;-77
2021/04/07 00:21:02;;;;;;;5.35;3.17;;;4.90;51.40;;;;;;10183255;28;20044;-77
2021/04/07 00:25:55;;;;;;;6.18;3.55;;;6.00;52.90;;;;;;10183322;28;20040;-77
2021/04/07 00:30:49;;;;;;;4.65;3.10;;;5.40;52.10;;;;;;10183332;28;20044;-77
2021/04/07 00:35:42;;;;;;;7.85;3.55;;;;;;;;;;10181482;28;20164;-77
2021/04/07 00:40:35;;;;;;;6.60;3.67;;;;;;;;;;10180381;28;20048;-77
2021/04/07 00:45:28;;;;;;;5.53;3.60;;;5.90;52.60;;;;;;10182413;28;20486;-76
2021/04/07 00:50:23;;;;;;;6.15;3.25;;;5.60;52.20;;;;;;10181528;28;20093;-77
2021/04/07 00:55:17;;;;;;;5.63;3.50;;;5.50;51.50;;;;;;10182637;28;20067;-77
2021/04/07 01:00:11;;;;;;;6.22;3.63;;;5.70;51.70;;;;;;10182063;28;20040;-77
2021/04/07 01:05:05;;;;;;;6.97;3.75;;;5.20;51.50;;;;;;10181956;28;20097;-76
2021/04/07 01:09:58;;;;;;;7.32;3.67;;;5.50;51.80;;;;;;10181612;28;20439;-76
2021/04/07 01:14:51;;;;;;;6.22;3.80;;;4.90;51.90;;;;;;10181473;28;20040;-76
2021/04/07 01:19:45;;;;;;;6.80;3.58;;;6.40;53.10;;;;;;10181712;28;20062;-77
2021/04/07 01:24:39;;;;;;;6.43;3.58;;;5.90;52.30;;;;;;10180682;28;20052;-76
2021/04/07 01:29:32;;;;;;;8.38;3.95;;;6.10;53.10;;;;;;10180218;28;20227;-76
2021/04/07 01:34:25;;;;;;;7.95;3.75;;;5.30;52.90;;;;;;10180338;28;20044;-76
2021/04/07 01:39:19;;;;;;;9.02;3.75;;;5.80;53.60;;;;;;10179132;28;20048;-77
2021/04/07 01:44:14;;;;;;;6.57;4.00;;;6.30;54.40;;;;;;10180697;28;20048;-76
2021/04/07 01:49:07;;;;;;;7.15;4.00;;;4.60;54.00;;;;;;10180124;28;20048;-76
2021/04/07 01:54:02;;;;;;;7.13;4.20;;;5.90;55.10;;;;;;10179621;28;20051;-77
2021/04/07 01:58:59;;;;;;;8.30;4.22;;;5.80;55.20;;;;;;10180383;28;20052;-77
2021/04/07 02:03:53;;;;;;;7.13;4.18;;;4.90;55.10;;;;;;10179291;28;20047;-78
2021/04/07 02:08:45;;;;;;;8.75;4.07;;;5.50;55.30;;;;;;10179003;28;20047;-77
2021/04/07 02:13:38;;;;;;;7.95;4.07;;;5.00;55.60;;;;;;10179712;28;20052;-77
2021/04/07 02:18:31;;;;;;;8.38;4.47;;;5.10;54.80;;;;;;10179635;28;20074;-76
2021/04/07 02:23:24;;;;;;;8.38;4.25;;;6.40;55.70;;;;;;10178932;28;20043;-76
2021/04/07 02:28:17;;;;;;;6.60;4.18;;;5.90;55.80;;;;;;10179012;28;20044;-76
2021/04/07 02:33:09;;;;;;;9.00;4.43;;;4.80;54.20;;;;;;10178565;28;20483;-76
2021/04/07 02:38:02;;;;;;;9.82;4.70;;;7.20;56.00;;;;;;10178743;28;20414;-76
2021/04/07 02:42:56;;;;;;;7.80;4.43;;;5.80;55.00;;;;;;10178908;28;20142;-76
2021/04/07 02:47:48;;;;;;;8.00;4.43;;;4.60;53.40;;;;;;10177844;28;20032;-75
2021/04/07 02:52:41;;;;;;;7.97;4.50;;;6.30;54.80;;;;;;10178267;28;20074;-76
2021/04/07 02:57:34;;;;;;;7.22;4.65;;;4.90;53.30;;;;;;10178059;28;20048;-76
2021/04/07 03:02:28;;;;;;;11.75;6.72;;;5.60;55.10;;;;;;10177275;28;20050;-77
2021/04/07 03:07:21;;;;;;;11.52;5.53;;;4.70;53.80;;;;;;10177953;28;20041;-76
2021/04/07 03:12:13;;;;;;;9.73;4.70;;;4.70;54.60;;;;;;10177664;28;20486;-76
2021/04/07 03:17:06;;;;;;;7.45;4.57;;;5.40;54.00;;;;;;10177822;28;20116;-76
2021/04/07 03:22:00;;;;;;;8.23;4.38;;;6.00;55.10;;;;;;10177520;28;20051;-76
2021/04/07 03:26:53;;;;;;;7.88;4.75;;;;;;;;;;10177093;28;20052;-77
2021/04/07 03:31:46;;;;;;;8.80;4.75;;;;;;;;;;10177238;28;20513;-76
2021/04/07 03:36:39;;;;;;;8.00;4.50;;;5.30;55.00;;;;;;10177269;28;20040;-77
2021/04/07 03:41:33;;;;;;;9.45;5.07;;;5.50;55.40;;;;;;10176731;28;20044;-77
2021/04/07 03:46:26;;;;;;;8.35;4.20;;;5.10;56.20;;;;;;10176745;28;20496;-76
2021/04/07 03:51:18;;;;;;;8.43;4.28;;;5.90;57.00;;;;;;10176777;28;20066;-75
2021/04/07 03:56:11;;;;;;;10.75;4.57;;;4.80;56.40;;;;;;10176562;28;20066;-77
2021/04/07 04:01:05;;;;;;;9.55;4.43;;;3.50;55.10;;;;;;10176453;28;20051;-76
2021/04/07 04:05:57;;;;;;;8.00;4.07;;;4.30;56.10;;;;;;10174820;28;20048;-77
2021/04/07 04:10:50;;;;;;;9.52;4.47;;;6.40;57.60;;;;;;10175235;28;20044;-76
2021/04/07 04:15:45;;;;;;;7.68;3.90;;;;;;;;;;10178321;28;20044;-77
2021/04/07 04:20:39;;;;;;;8.52;4.38;;;5.70;55.60;;;;;;10183410;28;20056;-77
2021/04/07 04:25:32;;;;;;;10.95;4.72;;;;;;;;;;10183204;28;20048;-76
2021/04/07 04:30:26;;;;;;;9.40;4.15;;;5.30;55.70;;;;;;10182827;28;20118;-76
2021/04/07 04:35:22;;;;;;;8.93;4.00;;;;;;;;;;10182538;28;20044;-78
2021/04/07 04:40:17;;;;;;;8.57;4.18;;;5.50;55.70;;;;;;10182273;28;20094;-77
2021/04/07 04:45:11;;;;;;;13.20;4.50;;;6.30;55.80;;;;;;10182083;28;20046;-76
2021/04/07 04:50:08;;;;;;;14.48;4.85;;;6.10;56.60;;;;;;10182144;28;20052;-77
2021/04/07 04:55:01;;;;;;;8.35;3.97;;;6.20;56.50;;;;;;10181322;28;20055;-76
2021/04/07 04:59:54;;;;;;;7.55;4.00;;;5.20;55.20;;;;;;10180977;28;20047;-76
2021/04/07 05:04:47;;;;;;;8.43;4.40;;;5.00;55.90;;;;;;10181020;28;20051;-77
2021/04/07 05:09:40;;;;;;;8.40;3.90;;;;;;;;;;10180415;28;20094;-76
2021/04/07 05:14:33;;;;;;;9.43;4.05;;;5.80;56.20;;;;;;10180905;28;20040;-76
2021/04/07 05:19:26;;;;;;;6.10;3.63;;;5.30;56.30;;;;;;10180253;28;20066;-76
2021/04/07 05:24:20;;;;;;;6.63;3.92;;;6.40;56.90;;;;;;10180305;28;20040;-76
2021/04/07 05:29:17;;;;;;;5.25;3.28;;;6.40;56.90;;;;;;10180275;28;20059;-76
2021/04/07 05:34:10;;;;;;;7.18;3.78;;;;;;;;;;10180575;28;20067;-78
2021/04/07 05:39:04;;;;;;;7.97;4.00;;;4.60;56.00;;;;;;10180126;28;20060;-77
2021/04/07 05:43:58;;;;;;;13.63;4.72;;;5.50;56.40;;;;;;10179871;28;20339;-76
2021/04/07 05:48:51;;;;;;;9.90;3.63;;;;;;;;;;10179457;28;20040;-77
2021/04/07 05:53:44;;;;;;;8.00;4.10;;;5.20;56.00;;;;;;10178800;28;20052;-75
2021/04/07 05:58:58;;;;;;;8.57;3.63;;;;;;;;;;10185501;28;20064;-78
2021/04/07 06:03:52;;;;;;;9.85;3.85;;;5.80;56.30;;;;;;10263484;27;20043;-77
2021/04/07 06:08:45;;;;;;;18.20;4.28;;;;;;;;;;10261442;27;20439;-77
2021/04/07 06:13:38;;;;;;;12.32;4.53;;;6.10;56.70;;;;;;10260268;27;20069;-77
2021/04/07 06:18:32;;;;;;;8.55;4.32;;;5.50;56.30;;;;;;10260499;27;20051;-77
2021/04/07 06:23:25;;;;;;;7.25;4.20;;;5.20;55.90;;;;;;10258674;27;20553;-77
2021/04/07 06:28:18;;;;;;;8.65;4.07;;;;;;;;;;10256129;27;20046;-79
2021/04/07 06:33:19;;;;;;;7.13;3.93;;;5.70;55.90;;;;;;10258036;27;20542;-77
2021/04/07 06:38:13;;;;;;;10.32;4.32;;;;;;;;;;10256756;27;20058;-78
2021/04/07 06:43:06;;;;;;;8.10;3.55;;;;;;;;;;10257062;27;20039;-77
2021/04/07 06:47:59;;;;;;;8.65;4.70;;;;;;;;;;10221851;27;20066;-77
2021/04/07 06:52:54;;;;;;;8.82;4.85;;;;;;;;;;10256394;27;20043;-79
2021/04/07 06:57:48;;;;;;;8.63;4.20;;;;;;;;;;10256725;27;20054;-77
2021/04/07 07:02:41;;;;;;;10.90;4.93;;;7.00;56.00;;;;;;10256202;27;20057;-77
2021/04/07 07:07:36;;;;;;;13.35;5.18;;;5.60;54.10;;;;;;10259267;28;20053;-78
2021/04/07 07:12:32;;;;;;;6.75;4.32;;;8.10;55.70;;;;;;10240710;28;20207;-76
2021/04/07 07:17:29;;;;;;;9.95;5.30;;;6.40;54.10;;;;;;10258382;28;20092;-76
2021/04/07 07:22:24;;;;;;;9.80;5.13;;;6.70;54.60;;;;;;10257531;28;20168;-76
2021/04/07 07:27:17;;;;;;;9.15;5.43;;;7.30;54.50;;;;;;10257554;28;20810;-75
2021/04/07 07:32:12;;;;;;;8.43;5.18;;;7.60;54.30;;;;;;10257082;28;20039;-76
2021/04/07 07:37:07;;;;;;;7.95;4.53;;;;;;;;;;10238629;28;20597;-77
2021/04/07 07:42:02;;;;;;;9.98;5.40;;;7.60;53.70;;;;;;10256596;28;20072;-76
2021/04/07 07:47:01;;;;;;;8.02;4.30;;;;;;;;;;10257196;28;20035;-77
2021/04/07 07:51:55;;;;;;;8.35;4.60;;;;;;;;;;10261905;27;20408;-77
2021/04/07 07:56:49;;;;;;;9.35;4.00;;;;;;;;;;10263227;27;20051;-80
2021/04/07 08:01:44;;;;;;;6.78;4.32;;;5.30;50.60;;;;;;10264126;27;20043;-78
2021/04/07 08:06:37;;;;;;;9.23;4.82;;;;;;;;;;10263672;27;20059;-76
2021/04/07 08:11:30;;;;;;;12.13;5.03;;;;;;;;;;10263405;27;20043;-75
2021/04/07 08:16:27;;;;;;;7.78;4.50;;;7.20;51.70;;;;;;10263290;27;20041;-76
2021/04/07 08:21:24;;;;;;;7.82;5.00;;;6.20;51.70;;;;;;10263427;27;20059;-77
2021/04/07 08:26:18;;;;;;;8.13;4.38;;;7.10;51.80;;;;;;10263627;27;20051;-77
2021/04/07 08:31:13;;;;;;;10.88;4.85;;;;;;;;;;10262344;27;20043;-77
2021/04/07 08:36:11;;;;;;;11.30;4.80;;;;;;;;;;10262037;27;20494;-77
2021/04/07 08:41:09;;;;;;;9.95;4.63;;;;;;;;;;10242512;27;20059;-75
2021/04/07 08:46:14;;;;;;;9.32;4.38;;;7.80;50.80;;;;;;10262468;27;20141;-75
2021/04/07 08:51:17;;;;;;;6.63;3.33;;;7.10;49.80;;;;;;10262013;27;20045;-77
2021/04/07 08:56:12;;;;;;;8.20;4.13;;;9.50;51.10;;;;;;10261510;27;20053;-77
2021/04/07 09:01:05;;;;;;;8.23;4.07;;;7.00;49.50;;;;;;10260734;27;20051;-76
2021/04/07 09:05:58;;;;;;;6.88;4.68;;;;;;;;;;10262558;27;20055;-76
2021/04/07 09:10:54;;;;;;;6.00;3.80;;;10.10;50.40;;;;;;10262226;27;20047;-78
2021/04/07 09:15:49;;;;;;;11.68;3.50;;;8.60;49.50;;;;;;10243712;27;20054;-78
2021/04/07 09:20:44;;;;;;;7.18;3.95;;;;;;;;;;10260937;27;20050;-76
2021/04/07 09:25:45;;;;;;;8.18;4.18;;;;;;;;;;10260033;27;20039;-77
2021/04/07 09:30:47;;;;;;;12.18;5.63;;;8.20;47.90;;;;;;10260324;27;20051;-77
2021/04/07 09:35:55;;;;;;;9.00;4.25;;;8.00;47.20;;;;;;10259727;27;20051;-77
2021/04/07 09:40:48;;;;;;;6.80;3.30;;;9.80;47.60;;;;;;10259760;27;20059;-77
2021/04/07 09:45:41;;;;;;;4.90;2.90;;;;;;;;;;10259715;27;20343;-78
2021/04/07 09:50:35;;;;;;;5.93;3.58;;;;;;;;;;10259905;27;20481;-78
2021/04/07 09:55:30;;;;;;;4.82;2.55;;;8.30;46.20;;;;;;10259499;27;20043;-78
2021/04/07 10:00:28;;;;;;;4.82;3.17;;;;;;;;;;10241052;27;20533;-77
2021/04/07 10:05:26;;;;;;;10.95;2.92;;;9.60;46.20;;;;;;10260604;27;20049;-78
2021/04/07 10:10:23;;;;;;;3.63;2.53;;;9.30;45.20;;;;;;10258441;27;20069;-80
2021/04/07 10:15:22;;;;;;;5.53;2.70;;;7.30;44.60;;;;;;10259290;27;20113;-77
2021/04/07 10:20:17;;;;;;;5.72;3.03;;;;;;;;;;10258021;27;20039;-77
2021/04/07 10:25:14;;;;;;;5.45;3.17;;;9.50;44.60;;;;;;10258231;27;20111;-77
2021/04/07 10:30:13;;;;;;;3.72;2.90;;;8.30;42.90;;;;;;10238959;27;20428;-78
2021/04/07 10:35:07;;;;;;;4.83;3.10;;;9.10;43.70;;;;;;10237292;27;20043;-76
2021/04/07 10:40:00;;;;;;;6.55;2.95;;;;;;;;;;10235109;27;20055;-79
2021/04/07 10:45:06;;;;;;;5.60;3.10;;;8.30;42.50;;;;;;10254261;27;20050;-77
2021/04/07 10:50:01;;;;;;;3.58;2.92;;;9.80;43.40;;;;;;10238054;27;20057;-78
2021/04/07 10:54:57;;;;;;;3.95;2.55;;;8.20;41.50;;;;;;10239142;27;20043;-77
2021/04/07 10:59:49;;;;;;;5.03;2.95;;;9.50;41.90;;;;;;10257275;27;20047;-76
2021/04/07 11:04:42;;;;;;;3.95;2.65;;;8.30;42.20;;;;;;10257475;27;20047;-78
2021/04/07 11:09:38;;;;;;;3.92;2.13;;;9.20;42.30;;;;;;10256858;28;20046;-77
2021/04/07 11:14:31;;;;;;;3.55;2.20;;;;;;;;;;10256402;28;20070;-77
2021/04/07 11:19:24;;;;;;;3.67;2.17;;;;;;;;;;10253966;28;20442;-76
2021/04/07 11:24:17;;;;;;;6.00;2.60;;;10.50;41.70;;;;;;10257079;27;20043;-76
2021/04/07 11:29:11;;;;;;;2.97;2.55;;;10.40;41.60;;;;;;10265408;27;20454;-76
2021/04/07 11:34:07;;;;;;;4.25;2.70;;;11.70;40.90;;;;;;10263312;27;20117;-77
2021/04/07 11:39:10;;;;;;;6.05;2.50;;;11.40;38.50;;;;;;10240944;27;20064;-77
2021/04/07 11:44:28;;;;;;;2.38;1.63;;;;;;;;;;10262832;27;20039;-76
2021/04/07 11:49:22;;;;;;;4.05;2.17;;;;;;;;;;10264122;27;20408;-76
2021/04/07 11:54:15;;;;;;;3.47;2.65;;;10.80;37.70;;;;;;10264493;27;20473;-77
2021/04/07 11:59:08;;;;;;;3.35;2.55;;;10.30;37.30;;;;;;10263936;27;20047;-77
2021/04/07 12:04:02;;;;;;;5.47;2.40;;;14.30;35.50;;;;;;10264075;27;20043;-77
2021/04/07 12:08:56;;;;;;;4.05;2.50;;;13.00;32.70;;;;;;10263855;27;20054;-77
2021/04/07 12:13:48;;;;;;;5.78;2.40;;;12.00;36.70;;;;;;10264258;27;20047;-76
2021/04/07 12:18:41;;;;;;;4.20;2.30;;;;;;;;;;10260820;27;20039;-75
2021/04/07 12:23:35;;;;;;;5.78;2.55;;;12.60;40.30;;;;;;10263644;27;20485;-76
2021/04/07 12:28:34;;;;;;;3.15;2.22;;;;;;;;;;10263505;27;20047;-78
2021/04/07 12:33:28;;;;;;;3.70;2.47;;;13.70;32.30;;;;;;10263792;27;20139;-76
2021/04/07 12:38:22;;;;;;;11.50;3.35;;;16.10;32.30;;;;;;10262150;27;20139;-77
2021/04/07 12:43:15;;;;;;;4.32;2.92;;;13.60;32.60;;;;;;10243272;27;20135;-76
2021/04/07 12:48:09;;;;;;;6.90;2.78;;;13.30;34.00;;;;;;10262744;27;20051;-77
2021/04/07 12:53:03;;;;;;;6.97;2.90;;;15.70;34.20;;;;;;10262470;27;20122;-76
2021/04/07 12:57:57;;;;;;;4.30;2.67;;;12.50;35.30;;;;;;10262804;27;20499;-76
2021/04/07 13:02:50;;;;;;;5.85;2.50;;;12.40;36.10;;;;;;10262315;27;20070;-76
2021/04/07 13:07:44;;;;;;;4.72;2.45;;;;;;;;;;10261565;27;20436;-76
2021/04/07 13:12:37;;;;;;;4.07;2.40;;;13.80;36.30;;;;;;10244268;27;20039;-77
2021/04/07 13:17:32;;;;;;;6.47;2.42;;;13.40;36.00;;;;;;10262234;27;20122;-77
2021/04/07 13:22:24;;;;;;;7.65;2.88;;;12.90;35.40;;;;;;10240224;27;20043;-77
2021/04/07 13:27:21;;;;;;;2.63;2.08;;;13.30;37.30;;;;;;10260937;27;20062;-78
2021/04/07 13:32:18;;;;;;;4.38;1.98;;;13.30;37.10;;;;;;10261036;27;20118;-73
2021/04/07 13:37:22;;;;;;;4.13;2.22;;;10.90;35.80;;;;;;10261206;27;20068;-74
2021/04/07 13:47:28;;;;;;;5.82;2.38;;;9.80;36.90;;;;;;10261102;27;20049;-72
2021/04/07 13:52:21;;;;;;;3.30;2.53;;;12.20;36.70;;;;;;10261067;27;20398;-74
2021/04/07 13:57:28;;;;;;;3.35;2.30;;;12.10;36.50;;;;;;10261238;27;20047;-73
2021/04/07 14:02:20;;;;;;;3.38;2.80;;;13.70;37.40;;;;;;10260203;27;20521;-73
2021/04/07 14:07:16;;;;;;;2.75;1.70;;;12.60;36.50;;;;;;10241653;27;20070;-73
2021/04/07 14:12:09;;;;;;;3.50;1.92;;;12.80;35.90;;;;;;10259987;27;20047;-73
2021/04/07 14:17:04;;;;;;;8.68;2.05;;;10.60;35.90;;;;;;10259901;27;20049;-72
2021/04/07 14:21:57;;;;;;;3.97;1.92;;;10.90;36.40;;;;;;10260317;27;20458;-73
2021/04/07 14:26:51;;;;;;;4.20;1.73;;;;;;;;;;10259780;27;20047;-73
2021/04/07 14:31:47;;;;;;;4.53;1.60;;;11.80;37.70;;;;;;10259688;27;20485;-74
2021/04/07 14:36:40;;;;;;;4.25;1.30;;;;;;;;;;10258987;27;20431;-74
2021/04/07 14:41:37;;;;;;;2.08;1.40;;;;;;;;;;10258504;27;20039;-77
2021/04/07 14:46:31;;;;;;;4.70;1.80;;;;;;;;;;10239813;27;20481;-76
2021/04/07 14:51:26;;;;;;;4.03;2.08;;;;;;;;;;10258180;27;20473;-75
2021/04/07 14:56:20;;;;;;;6.38;2.10;;;;;;;;;;10258651;27;20120;-75
2021/04/07 15:01:13;;;;;;;4.38;2.58;;;9.60;38.70;;;;;;10239004;27;20096;-75
2021/04/07 15:06:08;;;;;;;5.40;2.67;;;10.40;40.00;;;;;;10258280;27;20504;-76
2021/04/07 15:11:01;;;;;;;3.67;2.25;;;8.80;39.20;;;;;;10240034;28;20382;-76
2021/04/07 15:15:54;;;;;;;5.25;2.40;;;10.40;39.80;;;;;;10257774;28;20050;-75
2021/04/07 15:20:48;;;;;;;3.80;2.00;;;;;;;;;;10258016;28;20067;-75
2021/04/07 15:25:50;;;;;;;7.53;2.45;;;10.90;39.70;;;;;;10223297;28;20130;-76
2021/04/07 15:30:48;;;;;;;4.45;1.80;;;10.90;38.50;;;;;;10240082;27;20412;-76
2021/04/07 15:35:40;;;;;;;2.90;1.83;;;9.90;38.90;;;;;;10288287;27;20510;-76
2021/04/07 15:40:53;;;;;;;5.53;1.88;;;9.20;38.50;;;;;;10293046;27;20520;-76
2021/04/07 15:45:49;;;;;;;2.50;1.60;;;10.50;38.50;;;;;;10294508;27;20039;-76
2021/04/07 15:50:46;;;;;;;3.33;1.60;;;;;;;;;;10277699;27;20103;-76
2021/04/07 15:55:40;;;;;;;8.73;2.17;;;8.80;38.70;;;;;;10294541;27;20047;-76
2021/04/07 16:00:34;;;;;;;2.65;2.00;;;10.60;39.70;;;;;;10231330;27;102087;-76
2021/04/07 16:05:27;;;;;;;6.93;2.30;;;10.50;39.30;;;;;;10212753;28;20096;-75
2021/04/07 16:10:20;;;;;;;2.78;1.98;;;;;;;;;;10184195;28;20140;-77
2021/04/07 16:15:14;;;;;;;5.47;2.30;;;9.90;40.00;;;;;;10204967;28;20056;-77
2021/04/07 16:20:09;;;;;;;4.65;2.20;;;;;;;;;;10223842;28;20043;-75
2021/04/07 16:25:07;;;;;;;2.63;1.92;;;9.60;39.80;;;;;;10222339;28;20501;-77
2021/04/07 16:30:00;;;;;;;15.35;2.53;;;9.40;40.50;;;;;;10221844;28;20096;-76
2021/04/07 16:34:53;;;;;;;5.22;2.30;;;;;;;;;;10222454;28;20080;-75
2021/04/07 16:39:47;;;;;;;4.75;2.30;;;8.10;40.40;;;;;;10194758;28;73171;-78
2021/04/07 16:44:40;;;;;;;3.25;1.98;;;9.90;41.70;;;;;;10165473;28;66888;-76
2021/04/07 16:49:33;;;;;;;5.07;1.92;;;8.70;41.50;;;;;;10196146;28;20126;-76
2021/04/07 16:54:26;;;;;;;3.42;2.35;;;9.00;42.10;;;;;;10221009;28;20054;-76
2021/04/07 16:59:32;;;;;;;3.28;2.20;;;8.60;43.90;;;;;;10221005;28;20405;-78
2021/04/07 17:04:25;;;;;;;7.25;2.60;;;9.80;45.50;;;;;;10221506;28;20065;-77
2021/04/07 17:09:18;;;;;;;2.45;1.95;;;10.00;47.20;;;;;;10221105;28;20036;-78
2021/04/07 17:14:11;;;;;;;8.40;2.22;;;9.80;48.30;;;;;;10221590;28;20052;-76
2021/04/07 17:19:05;;;;;;;3.72;2.30;;;7.50;46.90;;;;;;10222061;28;20044;-77
2021/04/07 17:23:57;;;;;;;3.95;2.10;;;7.00;48.60;;;;;;10217600;28;20402;-77
2021/04/07 17:28:50;;;;;;;6.88;2.50;;;8.00;48.80;;;;;;10220671;28;20099;-77
2021/04/07 17:33:43;;;;;;;4.95;2.30;;;8.20;52.40;;;;;;10220314;28;20051;-76
2021/04/07 17:38:37;;;;;;;2.88;2.35;;;8.70;51.00;;;;;;10219516;28;20054;-76
2021/04/07 17:43:30;;;;;;;5.03;2.95;;;8.00;51.90;;;;;;10220152;28;20047;-77
2021/04/07 17:48:23;;;;;;;6.20;2.80;;;;;;;;;;10220180;28;20059;-75
2021/04/07 17:53:19;;;;;;;5.18;3.00;;;8.20;52.10;;;;;;10220706;28;20500;-75
2021/04/07 17:58:12;;;;;;;5.72;2.65;;;;;;;;;;10221446;28;20062;-77
2021/04/07 18:03:06;;;;;;;3.40;2.30;;;8.00;52.10;;;;;;10219040;28;20474;-75
2021/04/07 18:07:58;;;;;;;7.10;3.08;;;7.00;52.30;;;;;;10219682;28;20062;-77
2021/04/07 18:12:52;;;;;;;2.47;2.05;;;7.20;51.20;;;;;;10218863;28;20047;-77
2021/04/07 18:17:57;;;;;;;9.93;4.65;;;8.00;51.30;;;;;;10219140;28;20443;-76
2021/04/07 18:22:53;;;;;;;4.63;1.98;;;7.60;51.40;;;;;;10219202;28;20055;-78
2021/04/07 18:27:47;;;;;;;3.92;2.58;;;7.80;50.80;;;;;;10219197;28;20039;-75
2021/04/07 18:32:40;;;;;;;3.13;2.35;;;8.40;51.70;;;;;;10219601;28;20056;-76
2021/04/07 18:37:34;;;;;;;5.32;2.40;;;;;;;;;;10217659;28;20101;-76
2021/04/07 18:42:27;;;;;;;4.28;2.17;;;8.10;52.20;;;;;;10219209;28;20040;-76
2021/04/07 18:47:20;;;;;;;4.18;2.90;;;7.70;52.20;;;;;;10218547;28;20035;-75
2021/04/07 18:52:13;;;;;;;5.68;2.60;;;;;;;;;;10217323;28;20043;-75
2021/04/07 18:57:07;;;;;;;4.78;2.30;;;7.30;52.80;;;;;;10217552;28;20058;-76
2021/04/07 19:02:00;;;;;;;5.63;2.15;;;7.90;53.20;;;;;;10217369;28;20048;-77
2021/04/07 19:06:53;;;;;;;3.08;2.00;;;8.40;53.40;;;;;;10217539;28;20044;-75
2021/04/07 19:11:48;;;;;;;3.97;1.90;;;6.80;52.70;;;;;;10217879;28;20043;-76
2021/04/07 19:16:43;;;;;;;3.25;1.70;;;8.10;53.40;;;;;;10218930;28;20048;-76
2021/04/07 19:21:36;;;;;;;3.47;2.35;;;;;;;;;;10218004;28;20047;-75
2021/04/07 19:26:29;;;;;;;3.75;1.75;;;8.00;53.20;;;;;;10217316;28;20132;-76
2021/04/07 19:31:25;;;;;;;5.45;2.28;;;;;;;;;;10217115;28;20059;-76
2021/04/07 19:36:19;;;;;;;4.50;1.90;;;8.10;53.70;;;;;;10216073;28;20059;-77
2021/04/07 19:41:12;;;;;;;3.95;2.20;;;8.40;54.00;;;;;;10216990;28;20461;-76
2021/04/07 19:46:06;;;;;;;3.55;1.88;;;8.20;53.90;;;;;;10220162;28;20043;-77
2021/04/07 19:50:59;;;;;;;5.38;1.85;;;8.20;53.80;;;;;;10225244;28;20048;-75
2021/04/07 19:56:13;;;;;;;3.58;2.00;;;;;;;;;;10206411;28;20483;-76
2021/04/07 20:01:06;;;;;;;3.13;2.20;;;7.90;54.40;;;;;;10224339;28;20051;-78
2021/04/07 20:05:59;;;;;;;1.85;1.50;;;5.30;53.30;;;;;;10224882;28;20460;-75
2021/04/07 20:10:51;;;;;;;2.95;1.80;;;6.60;54.40;;;;;;10224326;28;20043;-76
2021/04/07 20:15:45;;;;;;;7.20;2.10;;;5.50;53.90;;;;;;10223665;28;20054;-75
2021/04/07 20:20:38;;;;;;;2.17;1.48;;;7.00;54.60;;;;;;10224636;28;20039;-76
2021/04/07 20:25:33;;;;;;;3.70;1.77;;;5.60;53.90;;;;;;10205489;28;20044;-76
2021/04/07 20:30:27;;;;;;;4.65;1.83;;;8.10;55.50;;;;;;10223869;28;20047;-76
2021/04/07 20:35:21;;;;;;;4.57;1.83;;;6.30;54.40;;;;;;10223260;28;20058;-76
2021/04/07 20:40:16;;;;;;;2.22;1.65;;;5.20;54.30;;;;;;10180627;28;20418;-75
2021/04/07 20:45:10;;;;;;;3.65;1.50;;;5.10;54.40;;;;;;10182092;28;20055;-76
2021/04/07 20:50:04;;;;;;;2.20;1.38;;;4.90;54.50;;;;;;10197476;28;20130;-76
2021/04/07 20:54:57;;;;;;;4.18;1.95;;;7.20;55.30;;;;;;10222343;28;20069;-78
2021/04/07 20:59:50;;;;;;;6.90;1.77;;;;;;;;;;10222173;28;20060;-76
2021/04/07 21:04:45;;;;;;;3.03;1.63;;;5.70;55.40;;;;;;10222369;28;20054;-76
2021/04/07 21:09:38;;;;;;;2.97;1.55;;;5.70;55.30;;;;;;10221921;28;20040;-76
2021/04/07 21:14:32;;;;;;;2.88;1.48;;;5.70;54.80;;;;;;10221641;28;20054;-75
2021/04/07 21:19:27;;;;;;;8.82;4.03;;;;;;;;;;10221472;28;20047;-75
2021/04/07 21:24:20;;;;;;;3.35;1.70;;;5.40;55.50;;;;;;10178772;28;20044;-78
2021/04/07 21:29:23;;;;;;;4.50;2.15;;;6.50;56.00;;;;;;10180271;28;20055;-76
2021/04/07 21:34:17;;;;;;;2.95;1.60;;;5.50;55.70;;;;;;10161827;28;20051;-78
2021/04/07 21:39:10;;;;;;;3.83;2.20;;;6.70;56.30;;;;;;10200587;28;20067;-77
2021/04/07 21:44:05;;;;;;;3.00;1.63;;;5.70;56.10;;;;;;10220165;28;20052;-77
2021/04/07 21:48:59;;;;;;;3.47;1.80;;;5.70;56.20;;;;;;10179422;28;20127;-77
2021/04/07 21:53:53;;;;;;;3.30;2.15;;;5.50;56.20;;;;;;10200633;28;20048;-76
2021/04/07 21:58:48;;;;;;;5.13;2.67;;;5.40;56.10;;;;;;10220401;28;20062;-76
2021/04/07 22:03:40;;;;;;;3.92;2.20;;;6.30;56.80;;;;;;10219702;28;20421;-76
2021/04/07 22:08:34;;;;;;;4.93;3.10;;;5.50;56.40;;;;;;10219399;28;20048;-76
2021/04/07 22:13:28;;;;;;;4.00;2.35;;;5.60;56.70;;;;;;10220459;28;20095;-77
2021/04/07 22:18:23;;;;;;;3.30;2.38;;;5.80;57.20;;;;;;10219552;28;20058;-76
2021/04/07 22:23:16;;;;;;;4.25;2.72;;;5.40;57.10;;;;;;10201439;28;20039;-77
2021/04/07 22:28:09;;;;;;;5.38;2.70;;;5.30;57.10;;;;;;10218991;28;20044;-76
2021/04/07 22:33:03;;;;;;;4.45;2.88;;;5.10;56.50;;;;;;10201162;28;20058;-76
2021/04/07 22:37:56;;;;;;;6.35;3.30;;;6.20;57.50;;;;;;10199860;28;20053;-75
2021/04/07 22:42:49;;;;;;;6.55;2.90;;;5.40;57.40;;;;;;10218852;28;20131;-76
2021/04/07 22:47:42;;;;;;;5.78;3.03;;;5.50;57.10;;;;;;10218919;28;20047;-74
2021/04/07 22:52:36;;;;;;;3.38;2.58;;;;;;;;;;10218917;28;20050;-75
2021/04/07 22:57:29;;;;;;;7.20;3.28;;;;;;;;;;10217973;28;20406;-75
2021/04/07 23:02:21;;;;;;;6.50;3.10;;;6.00;57.60;;;;;;10217751;28;20050;-79
2021/04/07 23:07:14;;;;;;;4.68;2.78;;;6.70;57.90;;;;;;10217580;28;20047;-78
2021/04/07 23:12:09;;;;;;;5.82;3.17;;;5.30;56.80;;;;;;10213319;28;20048;-76
2021/04/07 23:17:02;;;;;;;5.97;3.53;;;5.00;56.80;;;;;;10213878;28;20052;-76
2021/04/07 23:21:55;;;;;;;7.90;3.45;;;6.80;57.30;;;;;;10220690;28;20039;-75
2021/04/07 23:26:48;;;;;;;6.63;2.80;;;4.80;56.50;;;;;;10224050;28;20056;-76
2021/04/07 23:31:41;;;;;;;5.75;3.00;;;5.80;56.90;;;;;;10226375;28;20047;-76
2021/04/07 23:36:34;;;;;;;5.82;3.42;;;6.40;57.10;;;;;;10225371;28;20040;-76
2021/04/07 23:41:27;;;;;;;5.47;3.70;;;6.80;57.60;;;;;;10225506;28;20059;-78
2021/04/07 23:46:20;;;;;;;5.38;3.25;;;6.40;57.50;;;;;;10225765;28;20040;-77
2021/04/07 23:51:13;;;;;;;6.60;3.30;;;5.50;57.20;;;;;;10207152;28;20048;-76
2021/04/07 23:56:06;;;;;;;7.85;3.55;;;5.40;57.10;;;;;;10225899;28;20044;-75
